sensor_id;sensor_type;location;lat;lon;timestamp;pressure;altitude;pressure_sealevel;temperature;humidity
6833;BME280;3454;42.654;23.378;2023-10-09T00:01:04;64869.72;;;18.05;71.72
6833;BME280;3454;42.654;23.378;2023-10-09T00:03:44;64869.72;;;18.05;71.89
6833;BME280;3454;42.654;23.378;2023-10-09T00:06:11;64865.09;;;17.98;72.31
6833;BME280;3454;42.654;23.378;2023-10-09T00:08:40;64857.78;;;17.96;72.19
6833;BME280;3454;42.654;23.378;2023-10-09T00:11:10;64864.00;;;17.97;71.89
6833;BME280;3454;42.654;23.378;2023-10-09T00:13:41;64859.25;;;17.95;71.75
6833;BME280;3454;42.654;23.378;2023-10-09T00:16:21;64851.50;;;17.88;72.29
6833;BME280;3454;42.654;23.378;2023-10-09T00:19:12;64846.00;;;17.83;72.62
6833;BME280;3454;42.654;23.378;2023-10-09T00:21:49;64846.88;;;17.82;72.51
6833;BME280;3454;42.654;23.378;2023-10-09T00:24:15;64837.19;;;17.75;72.72
6833;BME280;3454;42.654;23.378;2023-10-09T00:26:54;64836.63;;;17.75;72.66
6833;BME280;3454;42.654;23.378;2023-10-09T00:29:26;64832.22;;;17.71;72.97
6833;BME280;3454;42.654;23.378;2023-10-09T00:31:59;64819.75;;;17.61;72.71
6833;BME280;3454;42.654;23.378;2023-10-09T00:34:38;64827.41;;;17.61;73.13
6833;BME280;3454;42.654;23.378;2023-10-09T00:37:10;64814.38;;;17.52;73.45
6833;BME280;3454;42.654;23.378;2023-10-09T00:39:43;64811.09;;;17.49;73.82
6833;BME280;3454;42.654;23.378;2023-10-09T00:42:10;64811.50;;;17.54;73.65
6833;BME280;3454;42.654;23.378;2023-10-09T00:44:40;64802.25;;;17.41;73.99
6833;BME280;3454;42.654;23.378;2023-10-09T00:47:08;64788.69;;;17.31;74.29
6833;BME280;3454;42.654;23.378;2023-10-09T00:50:17;64787.56;;;17.30;74.37
6833;BME280;3454;42.654;23.378;2023-10-09T00:52:45;64785.16;;;17.25;74.50
6833;BME280;3454;42.654;23.378;2023-10-09T00:55:20;64779.31;;;17.22;74.64
6833;BME280;3454;42.654;23.378;2023-10-09T00:57:49;64771.81;;;17.18;74.92
6833;BME280;3454;42.654;23.378;2023-10-09T01:00:25;64766.66;;;17.11;74.97
6833;BME280;3454;42.654;23.378;2023-10-09T01:02:59;64762.03;;;17.04;74.88
6833;BME280;3454;42.654;23.378;2023-10-09T01:05:46;64752.88;;;16.98;75.05
6833;BME280;3454;42.654;23.378;2023-10-09T01:08:21;64745.50;;;16.89;75.17
6833;BME280;3454;42.654;23.378;2023-10-09T01:11:05;64746.06;;;16.90;74.76
6833;BME280;3454;42.654;23.378;2023-10-09T01:13:38;64733.78;;;16.83;75.14
6833;BME280;3454;42.654;23.378;2023-10-09T01:16:07;64734.47;;;16.79;75.12
6833;BME280;3454;42.654;23.378;2023-10-09T01:18:38;64734.81;;;16.77;75.50
6833;BME280;3454;42.654;23.378;2023-10-09T01:21:06;64726.78;;;16.72;74.88
6833;BME280;3454;42.654;23.378;2023-10-09T01:23:31;64726.22;;;16.71;75.18
6833;BME280;3454;42.654;23.378;2023-10-09T01:25:57;64718.50;;;16.64;74.96
6833;BME280;3454;42.654;23.378;2023-10-09T01:28:23;64710.47;;;16.59;74.68
6833;BME280;3454;42.654;23.378;2023-10-09T01:30:50;64702.22;;;16.52;74.68
6833;BME280;3454;42.654;23.378;2023-10-09T01:33:17;64700.56;;;16.50;74.07
6833;BME280;3454;42.654;23.378;2023-10-09T01:35:52;64692.84;;;16.43;74.42
6833;BME280;3454;42.654;23.378;2023-10-09T01:38:27;64679.63;;;16.31;74.66
6833;BME280;3454;42.654;23.378;2023-10-09T01:41:18;64675.22;;;16.27;74.83
6833;BME280;3454;42.654;23.378;2023-10-09T01:43:45;64673.03;;;16.25;74.96
6833;BME280;3454;42.654;23.378;2023-10-09T01:46:11;64649.91;;;16.04;76.06
6833;BME280;3454;42.654;23.378;2023-10-09T01:48:37;64659.59;;;16.11;75.66
6833;BME280;3454;42.654;23.378;2023-10-09T01:51:14;64635.81;;;15.93;76.20
6833;BME280;3454;42.654;23.378;2023-10-09T01:53:43;64640.00;;;15.95;76.35
6833;BME280;3454;42.654;23.378;2023-10-09T01:56:12;64643.63;;;15.96;76.09
6833;BME280;3454;42.654;23.378;2023-10-09T01:58:41;64628.78;;;15.82;76.60
6833;BME280;3454;42.654;23.378;2023-10-09T02:01:06;64612.50;;;15.70;76.74
6833;BME280;3454;42.654;23.378;2023-10-09T02:03:32;64615.81;;;15.73;77.24
6833;BME280;3454;42.654;23.378;2023-10-09T02:06:02;64605.34;;;15.63;77.50
6833;BME280;3454;42.654;23.378;2023-10-09T02:08:30;64595.22;;;15.52;76.71
6833;BME280;3454;42.654;23.378;2023-10-09T02:11:00;64593.59;;;15.50;77.51
6833;BME280;3454;42.654;23.378;2023-10-09T02:13:28;64594.34;;;15.53;77.82
6833;BME280;3454;42.654;23.378;2023-10-09T02:16:00;64583.88;;;15.44;77.20
6833;BME280;3454;42.654;23.378;2023-10-09T02:18:40;64592.50;;;15.49;77.60
6833;BME280;3454;42.654;23.378;2023-10-09T02:21:19;64569.91;;;15.29;77.80
6833;BME280;3454;42.654;23.378;2023-10-09T02:24:06;64556.16;;;15.16;78.44
6833;BME280;3454;42.654;23.378;2023-10-09T02:26:35;64554.72;;;15.17;78.65
6833;BME280;3454;42.654;23.378;2023-10-09T02:29:04;64536.78;;;15.03;78.90
6833;BME280;3454;42.654;23.378;2023-10-09T02:31:40;64534.41;;;14.98;79.31
6833;BME280;3454;42.654;23.378;2023-10-09T02:34:07;64537.47;;;14.99;79.83
6833;BME280;3454;42.654;23.378;2023-10-09T02:36:40;64520.44;;;14.83;80.13
6833;BME280;3454;42.654;23.378;2023-10-09T02:39:14;64515.69;;;14.81;80.74
6833;BME280;3454;42.654;23.378;2023-10-09T02:41:52;64531.44;;;14.93;80.13
6833;BME280;3454;42.654;23.378;2023-10-09T02:44:25;64527.59;;;14.90;80.30
6833;BME280;3454;42.654;23.378;2023-10-09T02:46:51;64542.44;;;15.03;79.81
6833;BME280;3454;42.654;23.378;2023-10-09T02:49:17;64530.13;;;14.90;79.71
6833;BME280;3454;42.654;23.378;2023-10-09T02:51:43;64528.88;;;14.93;80.18
6833;BME280;3454;42.654;23.378;2023-10-09T02:54:13;64526.47;;;14.89;79.92
6833;BME280;3454;42.654;23.378;2023-10-09T02:56:48;64514.94;;;14.78;80.18
6833;BME280;3454;42.654;23.378;2023-10-09T02:59:22;64505.06;;;14.69;80.94
6833;BME280;3454;42.654;23.378;2023-10-09T03:01:48;64517.34;;;14.83;80.65
6833;BME280;3454;42.654;23.378;2023-10-09T03:04:14;64510.41;;;14.79;80.22
6833;BME280;3454;42.654;23.378;2023-10-09T03:06:41;64495.16;;;14.60;80.72
6833;BME280;3454;42.654;23.378;2023-10-09T03:09:19;64491.53;;;14.59;80.77
6833;BME280;3454;42.654;23.378;2023-10-09T03:11:53;64490.78;;;14.56;81.22
6833;BME280;3454;42.654;23.378;2023-10-09T03:14:22;64475.81;;;14.47;80.92
6833;BME280;3454;42.654;23.378;2023-10-09T03:16:54;64463.84;;;14.32;81.99
6833;BME280;3454;42.654;23.378;2023-10-09T03:19:22;64453.06;;;14.24;81.60
6833;BME280;3454;42.654;23.378;2023-10-09T03:21:47;64463.28;;;14.31;81.21
6833;BME280;3454;42.654;23.378;2023-10-09T03:24:13;64447.00;;;14.18;81.71
6833;BME280;3454;42.654;23.378;2023-10-09T03:26:38;64448.09;;;14.19;81.86
6833;BME280;3454;42.654;23.378;2023-10-09T03:29:04;64438.75;;;14.11;82.36
6833;BME280;3454;42.654;23.378;2023-10-09T03:31:36;64500.09;;;14.65;83.46
6833;BME280;3454;42.654;23.378;2023-10-09T03:34:02;64458.88;;;14.27;82.29
6833;BME280;3454;42.654;23.378;2023-10-09T03:36:29;64445.69;;;14.15;82.91
6833;BME280;3454;42.654;23.378;2023-10-09T03:38:59;64426.13;;;13.99;82.96
6833;BME280;3454;42.654;23.378;2023-10-09T03:41:25;64418.44;;;13.92;83.38
6833;BME280;3454;42.654;23.378;2023-10-09T03:43:54;64409.25;;;13.79;83.72
6833;BME280;3454;42.654;23.378;2023-10-09T03:46:20;64401.22;;;13.74;83.94
6833;BME280;3454;42.654;23.378;2023-10-09T03:48:52;64384.94;;;13.62;84.12
6833;BME280;3454;42.654;23.378;2023-10-09T03:51:22;64392.97;;;13.67;84.52
6833;BME280;3454;42.654;23.378;2023-10-09T03:53:49;64389.16;;;13.63;83.97
6833;BME280;3454;42.654;23.378;2023-10-09T03:56:15;64383.09;;;13.58;83.43
6833;BME280;3454;42.654;23.378;2023-10-09T03:58:47;64377.28;;;13.55;83.32
6833;BME280;3454;42.654;23.378;2023-10-09T04:01:20;64370.69;;;13.48;82.64
6833;BME280;3454;42.654;23.378;2023-10-09T04:04:03;64364.66;;;13.43;82.19
6833;BME280;3454;42.654;23.378;2023-10-09T04:06:31;64358.41;;;13.35;82.79
6833;BME280;3454;42.654;23.378;2023-10-09T04:09:05;64354.56;;;13.31;83.13
6833;BME280;3454;42.654;23.378;2023-10-09T04:11:47;64355.31;;;13.34;82.73
6833;BME280;3454;42.654;23.378;2023-10-09T04:14:16;64351.81;;;13.29;82.92
6833;BME280;3454;42.654;23.378;2023-10-09T04:17:02;64352.34;;;13.29;83.04
6833;BME280;3454;42.654;23.378;2023-10-09T04:19:45;64341.25;;;13.24;82.93
6833;BME280;3454;42.654;23.378;2023-10-09T04:22:36;64339.19;;;13.17;82.73
6833;BME280;3454;42.654;23.378;2023-10-09T04:25:08;64353.78;;;13.28;81.75
6833;BME280;3454;42.654;23.378;2023-10-09T04:27:42;64345.25;;;13.23;81.95
6833;BME280;3454;42.654;23.378;2023-10-09T04:30:10;64334.78;;;13.13;80.99
6833;BME280;3454;42.654;23.378;2023-10-09T04:32:42;64334.78;;;13.13;79.80
6833;BME280;3454;42.654;23.378;2023-10-09T04:35:11;64330.41;;;13.09;78.46
6833;BME280;3454;42.654;23.378;2023-10-09T04:37:49;64329.88;;;13.09;77.59
6833;BME280;3454;42.654;23.378;2023-10-09T04:40:26;64328.22;;;13.07;77.53
6833;BME280;3454;42.654;23.378;2023-10-09T04:43:13;64321.59;;;13.01;77.36
6833;BME280;3454;42.654;23.378;2023-10-09T04:45:48;64320.75;;;13.03;74.67
6833;BME280;3454;42.654;23.378;2023-10-09T04:48:33;64389.69;;;13.64;80.18
6833;BME280;3454;42.654;23.378;2023-10-09T04:51:04;64355.66;;;13.32;75.27
6833;BME280;3454;42.654;23.378;2023-10-09T04:53:48;64335.56;;;13.16;75.51
6833;BME280;3454;42.654;23.378;2023-10-09T04:56:36;64328.22;;;13.07;75.90
6833;BME280;3454;42.654;23.378;2023-10-09T04:59:17;64327.34;;;13.09;75.00
6833;BME280;3454;42.654;23.378;2023-10-09T05:01:43;64367.72;;;13.43;100.00
6833;BME280;3454;42.654;23.378;2023-10-09T05:04:11;64356.97;;;13.36;76.41
6833;BME280;3454;42.654;23.378;2023-10-09T05:07:10;64336.47;;;13.15;74.45
6833;BME280;3454;42.654;23.378;2023-10-09T05:09:53;64326.00;;;13.05;74.13
6833;BME280;3454;42.654;23.378;2023-10-09T05:12:40;64330.41;;;13.09;73.10
6833;BME280;3454;42.654;23.378;2023-10-09T05:15:13;64337.00;;;13.15;71.19
6833;BME280;3454;42.654;23.378;2023-10-09T05:17:40;64342.50;;;13.20;71.15
6833;BME280;3454;42.654;23.378;2023-10-09T05:20:11;64347.97;;;13.25;70.74
6833;BME280;3454;42.654;23.378;2023-10-09T05:22:48;64322.94;;;13.05;70.07
6833;BME280;3454;42.654;23.378;2023-10-09T05:25:26;64321.59;;;13.01;69.90
6833;BME280;3454;42.654;23.378;2023-10-09T05:28:11;64319.06;;;13.01;70.35
6833;BME280;3454;42.654;23.378;2023-10-09T05:30:58;64321.59;;;13.01;70.57
6833;BME280;3454;42.654;23.378;2023-10-09T05:33:55;64334.78;;;13.13;70.12
6833;BME280;3454;42.654;23.378;2023-10-09T05:36:26;64322.41;;;13.04;68.78
6833;BME280;3454;42.654;23.378;2023-10-09T05:38:52;64330.41;;;13.09;68.69
6833;BME280;3454;42.654;23.378;2023-10-09T05:41:27;64338.09;;;13.16;68.55
6833;BME280;3454;42.654;23.378;2023-10-09T05:44:11;64331.50;;;13.10;66.46
6833;BME280;3454;42.654;23.378;2023-10-09T05:46:55;64341.72;;;13.17;66.35
6833;BME280;3454;42.654;23.378;2023-10-09T05:49:39;64335.34;;;13.14;66.11
6833;BME280;3454;42.654;23.378;2023-10-09T05:52:14;64325.69;;;13.07;66.62
6833;BME280;3454;42.654;23.378;2023-10-09T05:54:59;64329.31;;;13.08;66.30
6833;BME280;3454;42.654;23.378;2023-10-09T05:57:43;64325.69;;;13.07;65.74
6833;BME280;3454;42.654;23.378;2023-10-09T06:00:24;64330.97;;;13.10;65.03
6833;BME280;3454;42.654;23.378;2023-10-09T06:03:08;64338.31;;;13.19;64.69
6833;BME280;3454;42.654;23.378;2023-10-09T06:05:50;64338.66;;;13.17;63.55
6833;BME280;3454;42.654;23.378;2023-10-09T06:08:36;64340.84;;;13.19;63.93
6833;BME280;3454;42.654;23.378;2023-10-09T06:11:10;64343.78;;;13.24;63.83
6833;BME280;3454;42.654;23.378;2023-10-09T06:13:56;64351.47;;;13.31;62.94
6833;BME280;3454;42.654;23.378;2023-10-09T06:16:41;64350.94;;;13.30;62.56
6833;BME280;3454;42.654;23.378;2023-10-09T06:19:07;64352.56;;;13.32;61.46
6833;BME280;3454;42.654;23.378;2023-10-09T06:21:34;64350.16;;;13.27;62.10
6833;BME280;3454;42.654;23.378;2023-10-09T06:24:07;64362.25;;;13.38;61.00
6833;BME280;3454;42.654;23.378;2023-10-09T06:26:56;64367.94;;;13.46;60.27
6833;BME280;3454;42.654;23.378;2023-10-09T06:29:28;64373.22;;;13.48;60.38
6833;BME280;3454;42.654;23.378;2023-10-09T06:32:10;64374.88;;;13.50;58.49
6833;BME280;3454;42.654;23.378;2023-10-09T06:34:45;64386.41;;;13.61;58.66
6833;BME280;3454;42.654;23.378;2023-10-09T06:37:14;64386.41;;;13.61;57.11
6833;BME280;3454;42.654;23.378;2023-10-09T06:39:56;64383.09;;;13.58;57.42
6833;BME280;3454;42.654;23.378;2023-10-09T06:42:25;64378.16;;;13.53;56.87
6833;BME280;3454;42.654;23.378;2023-10-09T06:45:11;64378.91;;;13.56;57.03
6833;BME280;3454;42.654;23.378;2023-10-09T06:47:37;64393.19;;;13.69;57.54
6833;BME280;3454;42.654;23.378;2023-10-09T06:50:21;64414.94;;;13.87;58.06
6833;BME280;3454;42.654;23.378;2023-10-09T06:52:50;64441.31;;;14.11;55.22
6833;BME280;3454;42.654;23.378;2023-10-09T06:55:39;64437.13;;;14.09;55.51
6833;BME280;3454;42.654;23.378;2023-10-09T06:58:15;64453.81;;;14.27;55.67
6833;BME280;3454;42.654;23.378;2023-10-09T07:00:49;64477.59;;;14.44;54.35
6833;BME280;3454;42.654;23.378;2023-10-09T07:03:27;64449.75;;;14.21;52.85
6833;BME280;3454;42.654;23.378;2023-10-09T07:06:05;64438.56;;;14.08;52.16
6833;BME280;3454;42.654;23.378;2023-10-09T07:08:38;64432.72;;;14.05;52.06
6833;BME280;3454;42.654;23.378;2023-10-09T07:11:04;64441.09;;;14.08;52.44
6833;BME280;3454;42.654;23.378;2023-10-09T07:14:20;64469.00;;;14.39;52.27
6833;BME280;3454;42.654;23.378;2023-10-09T07:17:05;64483.63;;;14.50;51.58
6833;BME280;3454;42.654;23.378;2023-10-09T07:19:51;64493.72;;;14.61;50.11
6833;BME280;3454;42.654;23.378;2023-10-09T07:22:17;64521.22;;;14.86;51.01
6833;BME280;3454;42.654;23.378;2023-10-09T07:27:19;64505.59;;;14.70;50.20
6833;BME280;3454;42.654;23.378;2023-10-09T07:30:05;64500.31;;;14.67;49.53
6833;BME280;3454;42.654;23.378;2023-10-09T07:32:53;64525.38;;;14.88;49.56
6833;BME280;3454;42.654;23.378;2023-10-09T07:35:20;64567.38;;;15.29;48.76
6833;BME280;3454;42.654;23.378;2023-10-09T07:38:06;64567.91;;;15.29;47.85
6833;BME280;3454;42.654;23.378;2023-10-09T07:40:38;64584.22;;;15.42;47.12
6833;BME280;3454;42.654;23.378;2023-10-09T07:43:23;64573.22;;;15.32;47.07
6833;BME280;3454;42.654;23.378;2023-10-09T07:45:57;64535.69;;;15.02;46.98
6833;BME280;3454;42.654;23.378;2023-10-09T07:48:22;64564.06;;;15.26;47.14
6833;BME280;3454;42.654;23.378;2023-10-09T07:50:51;64587.75;;;15.47;46.80
6833;BME280;3454;42.654;23.378;2023-10-09T07:53:23;64571.00;;;15.30;45.92
6833;BME280;3454;42.654;23.378;2023-10-09T07:55:55;64567.56;;;15.31;45.12
6833;BME280;3454;42.654;23.378;2023-10-09T07:58:26;64567.91;;;15.29;44.50
6833;BME280;3454;42.654;23.378;2023-10-09T08:00:56;64603.16;;;15.61;44.43
6833;BME280;3454;42.654;23.378;2023-10-09T08:03:31;64599.09;;;15.55;43.57
6833;BME280;3454;42.654;23.378;2023-10-09T08:05:59;64611.19;;;15.66;43.57
6833;BME280;3454;42.654;23.378;2023-10-09T08:08:44;64609.19;;;15.67;43.46
6833;BME280;3454;42.654;23.378;2023-10-09T08:11:29;64638.03;;;15.95;43.12
6833;BME280;3454;42.654;23.378;2023-10-09T08:14:14;64698.91;;;16.49;42.35
6833;BME280;3454;42.654;23.378;2023-10-09T08:16:59;64673.56;;;16.26;42.39
6833;BME280;3454;42.654;23.378;2023-10-09T08:19:50;64714.88;;;16.63;42.16
6833;BME280;3454;42.654;23.378;2023-10-09T08:25:07;64746.81;;;16.93;40.91
6833;BME280;3454;42.654;23.378;2023-10-09T08:27:33;64768.84;;;17.13;40.30
6833;BME280;3454;42.654;23.378;2023-10-09T08:29:59;64780.97;;;17.24;40.58
6833;BME280;3454;42.654;23.378;2023-10-09T08:32:47;64771.25;;;17.17;39.09
6833;BME280;3454;42.654;23.378;2023-10-09T08:35:35;64731.59;;;16.81;39.81
6833;BME280;3454;42.654;23.378;2023-10-09T08:38:13;64770.16;;;17.16;39.31
6833;BME280;3454;42.654;23.378;2023-10-09T08:40:41;64761.13;;;17.06;38.42
6833;BME280;3454;42.654;23.378;2023-10-09T08:43:19;64751.22;;;16.97;38.74
6833;BME280;3454;42.654;23.378;2023-10-09T08:45:49;64720.72;;;16.66;39.76
6833;BME280;3454;42.654;23.378;2023-10-09T08:48:19;64806.66;;;17.45;38.78
6833;BME280;3454;42.654;23.378;2023-10-09T08:50:48;64839.06;;;17.79;38.20
6833;BME280;3454;42.654;23.378;2023-10-09T08:53:20;64788.34;;;17.33;38.43
6833;BME280;3454;42.654;23.378;2023-10-09T08:55:46;64794.19;;;17.36;38.45
6833;BME280;3454;42.654;23.378;2023-10-09T08:58:14;64806.00;;;17.49;38.07
6833;BME280;3454;42.654;23.378;2023-10-09T09:00:51;64888.47;;;18.22;37.46
6833;BME280;3454;42.654;23.378;2023-10-09T09:03:18;64929.28;;;18.59;37.13
6833;BME280;3454;42.654;23.378;2023-10-09T09:05:57;64949.69;;;18.78;36.96
6833;BME280;3454;42.654;23.378;2023-10-09T09:08:27;64948.22;;;18.79;36.67
6833;BME280;3454;42.654;23.378;2023-10-09T09:11:08;64956.88;;;18.84;36.23
6833;BME280;3454;42.654;23.378;2023-10-09T09:13:41;64915.16;;;18.49;35.53
6833;BME280;3454;42.654;23.378;2023-10-09T09:16:20;64939.97;;;18.71;35.39
6833;BME280;3454;42.654;23.378;2023-10-09T09:21:27;64958.88;;;18.84;33.51
6833;BME280;3454;42.654;23.378;2023-10-09T09:23:54;64994.19;;;19.16;33.93
6833;BME280;3454;42.654;23.378;2023-10-09T09:26:38;65069.16;;;19.89;33.21
6833;BME280;3454;42.654;23.378;2023-10-09T09:29:12;65043.19;;;19.65;31.45
6833;BME280;3454;42.654;23.378;2023-10-09T09:31:37;65114.25;;;20.28;32.44
6833;BME280;3454;42.654;23.378;2023-10-09T09:34:05;65156.81;;;20.66;31.39
6833;BME280;3454;42.654;23.378;2023-10-09T09:36:55;65108.38;;;20.25;30.79
6833;BME280;3454;42.654;23.378;2023-10-09T09:39:30;65108.38;;;20.25;31.34
6833;BME280;3454;42.654;23.378;2023-10-09T09:41:59;65145.94;;;20.59;30.95
6833;BME280;3454;42.654;23.378;2023-10-09T09:44:35;65192.94;;;21.02;31.68
6833;BME280;3454;42.654;23.378;2023-10-09T09:47:15;65298.63;;;21.98;30.43
6833;BME280;3454;42.654;23.378;2023-10-09T09:49:54;65366.47;;;22.57;29.99
6833;BME280;3454;42.654;23.378;2023-10-09T09:52:29;65329.19;;;22.21;29.02
6833;BME280;3454;42.654;23.378;2023-10-09T09:55:08;65271.28;;;21.70;29.02
6833;BME280;3454;42.654;23.378;2023-10-09T09:57:48;65396.06;;;22.86;28.66
6833;BME280;3454;42.654;23.378;2023-10-09T10:00:20;65368.91;;;22.62;27.91
6833;BME280;3454;42.654;23.378;2023-10-09T10:03:07;65321.09;;;22.16;28.47
6833;BME280;3454;42.654;23.378;2023-10-09T10:05:34;65333.25;;;22.27;29.34
6833;BME280;3454;42.654;23.378;2023-10-09T10:08:02;65315.75;;;22.13;28.88
6833;BME280;3454;42.654;23.378;2023-10-09T10:10:37;65371.69;;;22.64;27.17
6833;BME280;3454;42.654;23.378;2023-10-09T10:13:05;65432.06;;;23.19;27.17
6833;BME280;3454;42.654;23.378;2023-10-09T10:18:55;65334.03;;;22.30;28.67
6833;BME280;3454;42.654;23.378;2023-10-09T10:21:43;65417.63;;;23.06;28.03
6833;BME280;3454;42.654;23.378;2023-10-09T10:35:19;65358.38;;;22.52;27.87
6833;BME280;3454;42.654;23.378;2023-10-09T10:41:17;65222.81;;;21.29;29.30
6833;BME280;3454;42.654;23.378;2023-10-09T10:43:45;65368.56;;;22.64;28.93
6833;BME280;3454;42.654;23.378;2023-10-09T10:46:14;65445.69;;;23.29;27.60
6833;BME280;3454;42.654;23.378;2023-10-09T10:48:41;65510.19;;;23.90;27.13
6833;BME280;3454;42.654;23.378;2023-10-09T10:51:13;65403.59;;;22.91;26.72
6833;BME280;3454;42.654;23.378;2023-10-09T10:54:01;65434.81;;;23.21;27.32
6833;BME280;3454;42.654;23.378;2023-10-09T10:56:47;65525.72;;;24.04;27.28
6833;BME280;3454;42.654;23.378;2023-10-09T10:59:13;65399.91;;;22.90;27.17
6833;BME280;3454;42.654;23.378;2023-10-09T11:01:39;65413.22;;;23.02;26.99
6833;BME280;3454;42.654;23.378;2023-10-09T11:04:27;65393.84;;;22.84;26.46
6833;BME280;3454;42.654;23.378;2023-10-09T11:07:01;65357.81;;;22.51;27.06
6833;BME280;3454;42.654;23.378;2023-10-09T11:09:57;65377.22;;;22.69;27.12
6833;BME280;3454;42.654;23.378;2023-10-09T11:12:42;65505.75;;;23.86;26.49
6833;BME280;3454;42.654;23.378;2023-10-09T11:15:11;65570.84;;;24.47;25.82
6833;BME280;3454;42.654;23.378;2023-10-09T11:18:01;65469.19;;;23.53;25.88
6833;BME280;3454;42.654;23.378;2023-10-09T11:20:37;65501.31;;;23.82;25.93
6833;BME280;3454;42.654;23.378;2023-10-09T11:23:04;65544.00;;;24.21;26.32
6833;BME280;3454;42.654;23.378;2023-10-09T11:25:41;65526.63;;;24.02;25.87
6833;BME280;3454;42.654;23.378;2023-10-09T11:28:22;65546.78;;;24.23;25.55
6833;BME280;3454;42.654;23.378;2023-10-09T11:31:11;65476.03;;;23.61;26.38
6833;BME280;3454;42.654;23.378;2023-10-09T11:33:52;65397.34;;;22.90;26.73
6833;BME280;3454;42.654;23.378;2023-10-09T11:36:22;65506.88;;;23.87;27.97
6833;BME280;3454;42.654;23.378;2023-10-09T11:38:58;65525.72;;;24.04;26.31
6833;BME280;3454;42.654;23.378;2023-10-09T11:41:43;65522.94;;;24.01;26.02
6833;BME280;3454;42.654;23.378;2023-10-09T11:44:10;65580.81;;;24.56;26.38
6833;BME280;3454;42.654;23.378;2023-10-09T11:47:03;65598.38;;;24.70;25.73
6833;BME280;3454;42.654;23.378;2023-10-09T11:49:56;65622.78;;;24.92;25.88
6833;BME280;3454;42.654;23.378;2023-10-09T11:52:29;65639.06;;;25.09;25.83
6833;BME280;3454;42.654;23.378;2023-10-09T11:54:58;65587.84;;;24.60;25.70
6833;BME280;3454;42.654;23.378;2023-10-09T11:57:25;65668.84;;;25.34;25.88
6833;BME280;3454;42.654;23.378;2023-10-09T11:59:57;65671.06;;;25.36;24.56
6833;BME280;3454;42.654;23.378;2023-10-09T12:02:23;65646.84;;;25.16;25.58
6833;BME280;3454;42.654;23.378;2023-10-09T12:04:49;65621.69;;;24.91;25.27
6833;BME280;3454;42.654;23.378;2023-10-09T12:07:15;65595.78;;;24.70;25.29
6833;BME280;3454;42.654;23.378;2023-10-09T12:09:40;65587.84;;;24.60;24.83
6833;BME280;3454;42.654;23.378;2023-10-09T12:12:07;65588.56;;;24.63;25.95
6833;BME280;3454;42.654;23.378;2023-10-09T12:14:36;65664.97;;;25.30;25.63
6833;BME280;3454;42.654;23.378;2023-10-09T12:17:07;65697.34;;;25.62;25.66
6833;BME280;3454;42.654;23.378;2023-10-09T12:19:37;65659.97;;;25.26;24.69
6833;BME280;3454;42.654;23.378;2023-10-09T12:22:05;65604.47;;;24.75;24.66
6833;BME280;3454;42.654;23.378;2023-10-09T12:24:32;65578.41;;;24.52;25.31
6833;BME280;3454;42.654;23.378;2023-10-09T12:26:59;65463.63;;;23.48;25.96
6833;BME280;3454;42.654;23.378;2023-10-09T12:29:25;65512.75;;;23.90;25.84
6833;BME280;3454;42.654;23.378;2023-10-09T12:31:56;65595.59;;;24.67;26.38
6833;BME280;3454;42.654;23.378;2023-10-09T12:34:25;65649.63;;;25.19;26.05
6833;BME280;3454;42.654;23.378;2023-10-09T12:36:58;65681.63;;;25.45;24.63
6833;BME280;3454;42.654;23.378;2023-10-09T12:39:26;65671.06;;;25.36;24.94
6833;BME280;3454;42.654;23.378;2023-10-09T12:41:58;65550.88;;;24.29;24.78
6833;BME280;3454;42.654;23.378;2023-10-09T12:44:35;65519.03;;;23.98;25.10
6833;BME280;3454;42.654;23.378;2023-10-09T12:47:08;65571.75;;;24.46;25.25
6833;BME280;3454;42.654;23.378;2023-10-09T12:49:36;65619.84;;;24.94;24.48
6833;BME280;3454;42.654;23.378;2023-10-09T12:52:07;65646.66;;;25.14;25.02
6833;BME280;3454;42.654;23.378;2023-10-09T12:54:41;65669.97;;;25.35;24.35
6833;BME280;3454;42.654;23.378;2023-10-09T12:57:07;65707.53;;;25.66;23.62
6833;BME280;3454;42.654;23.378;2023-10-09T12:59:39;65671.63;;;25.36;23.92
6833;BME280;3454;42.654;23.378;2023-10-09T13:02:11;65622.44;;;24.94;24.68
6833;BME280;3454;42.654;23.378;2023-10-09T13:04:37;65668.84;;;25.34;23.68
6833;BME280;3454;42.654;23.378;2023-10-09T13:07:06;65670.69;;;25.38;24.19
6833;BME280;3454;42.654;23.378;2023-10-09T13:09:34;65630.75;;;25.02;23.47
6833;BME280;3454;42.654;23.378;2023-10-09T13:12:09;65573.97;;;24.48;22.32
6833;BME280;3454;42.654;23.378;2023-10-09T13:14:39;65586.72;;;24.59;23.80
6833;BME280;3454;42.654;23.378;2023-10-09T13:17:06;65616.69;;;24.86;23.45
6833;BME280;3454;42.654;23.378;2023-10-09T13:19:35;65550.66;;;24.27;23.68
6833;BME280;3454;42.654;23.378;2023-10-09T13:22:01;65569.53;;;24.44;23.89
6833;BME280;3454;42.654;23.378;2023-10-09T13:24:29;65598.56;;;24.72;24.83
6833;BME280;3454;42.654;23.378;2023-10-09T13:26:56;65627.44;;;24.98;24.01
6833;BME280;3454;42.654;23.378;2023-10-09T13:29:23;65629.66;;;25.01;23.84
6833;BME280;3454;42.654;23.378;2023-10-09T13:31:49;65598.38;;;24.70;23.75
6833;BME280;3454;42.654;23.378;2023-10-09T13:34:18;65546.78;;;24.23;23.29
6833;BME280;3454;42.654;23.378;2023-10-09T13:36:43;65600.03;;;24.71;23.68
6833;BME280;3454;42.654;23.378;2023-10-09T13:39:19;65612.25;;;24.82;23.68
6833;BME280;3454;42.654;23.378;2023-10-09T13:41:55;65630.56;;;24.99;23.31
6833;BME280;3454;42.654;23.378;2023-10-09T13:44:30;65621.13;;;24.90;23.90
6833;BME280;3454;42.654;23.378;2023-10-09T13:47:14;65585.63;;;24.58;24.02
6833;BME280;3454;42.654;23.378;2023-10-09T13:49:47;65527.41;;;24.05;23.63
6833;BME280;3454;42.654;23.378;2023-10-09T13:52:18;65566.75;;;24.41;23.58
6833;BME280;3454;42.654;23.378;2023-10-09T13:54:45;65594.50;;;24.66;24.06
6833;BME280;3454;42.654;23.378;2023-10-09T13:57:14;65592.81;;;24.65;23.39
6833;BME280;3454;42.654;23.378;2023-10-09T13:59:42;65590.41;;;24.60;23.54
6833;BME280;3454;42.654;23.378;2023-10-09T14:02:18;65552.88;;;24.29;22.80
6833;BME280;3454;42.654;23.378;2023-10-09T14:04:45;65542.34;;;24.19;22.16
6833;BME280;3454;42.654;23.378;2023-10-09T14:07:14;65542.91;;;24.20;22.13
6833;BME280;3454;42.654;23.378;2023-10-09T14:09:44;65519.81;;;24.01;22.66
6833;BME280;3454;42.654;23.378;2023-10-09T14:12:10;65537.91;;;24.15;22.87